Time;durP1;ratioP1;P1;durP2;ratioP2;P2;SDS_P1;SDS_P2;PMS_P1;PMS_P2;Temp;Humidity;BMP_temperature;BMP_pressure;BME280_temperature;BME280_humidity;BME280_pressure;Samples;Min_cycle;Max_cycle;Signal;HPM_P1;HPM_P2
2021/04/01 00:00:13;;;;;;;0.50;0.50;;;;;;;14.41;37.99;97194.56;29989;250;6000;-61
2021/04/01 00:00:47;;;;;;;0.50;0.50;;;;;;;14.42;37.95;97193.47;29990;230;6004;-61
2021/04/01 00:01:18;;;;;;;0.50;0.50;;;;;;;14.41;38.00;97191.84;29990;315;6000;-61
2021/04/01 00:01:49;;;;;;;0.50;0.50;;;;;;;14.42;38.20;97198.91;29989;210;6004;-61
2021/04/01 00:02:32;;;;;;;0.50;0.50;;;;;;;14.43;37.79;97192.34;29989;261;6000;-61
2021/04/01 00:03:05;;;;;;;0.50;0.50;;;;;;;14.43;37.91;97194.28;29990;198;6004;-60
2021/04/01 00:03:41;;;;;;;0.50;0.50;;;;;;;14.42;37.73;97193.47;29990;233;6000;-60
2021/04/01 00:04:13;;;;;;;0.50;0.50;;;;;;;14.44;37.98;97191.22;29990;200;6005;-60
2021/04/01 00:04:44;;;;;;;0.50;0.50;;;;;;;14.44;37.79;97198.63;29990;291;6000;-61
2021/04/01 00:05:15;;;;;;;0.50;0.50;;;;;;;14.45;38.20;97194.78;29990;198;6005;-61
2021/04/01 00:05:47;;;;;;;0.50;0.50;;;;;;;14.46;37.98;97193.66;29990;196;6000;-60
2021/04/01 00:06:18;;;;;;;0.50;0.50;;;;;;;14.46;37.98;97191.72;29990;217;6004;-61
2021/04/01 00:06:48;;;;;;;0.50;0.50;;;;;;;14.47;38.02;97190.63;29989;196;6000;-61
2021/04/01 00:07:19;;;;;;;0.50;0.50;;;;;;;14.47;38.17;97190.63;29990;197;6004;-61
2021/04/01 00:07:51;;;;;;;0.50;0.50;;;;;;;14.47;38.04;97190.63;29990;212;6000;-60
2021/04/01 00:08:21;;;;;;;0.50;0.50;;;;;;;14.48;37.98;97191.41;29990;257;6004;-61
2021/04/01 00:08:52;;;;;;;0.50;0.50;;;;;;;14.47;38.19;97190.63;29989;263;6000;-61
2021/04/01 00:09:23;;;;;;;0.50;0.50;;;;;;;14.47;37.97;97196.06;29990;201;6004;-61
2021/04/01 00:09:54;;;;;;;0.50;0.50;;;;;;;14.47;38.07;97187.87;29990;225;6000;-61
2021/04/01 00:10:29;;;;;;;0.50;0.50;;;;;;;14.47;38.17;97196.06;29990;243;6004;-61
2021/04/01 00:11:00;;;;;;;0.50;0.50;;;;;;;14.46;37.92;97189.00;29990;268;6000;-61
2021/04/01 00:11:31;;;;;;;3.67;3.58;;;;;;;14.46;38.10;97183.53;29990;213;6005;-61
2021/04/01 00:12:03;;;;;;;0.50;0.50;;;;;;;14.46;37.90;97183.53;29990;215;6000;-61
2021/04/01 00:12:34;;;;;;;0.50;0.50;;;;;;;14.45;37.98;97187.38;29990;205;6005;-61
2021/04/01 00:13:05;;;;;;;0.50;0.50;;;;;;;14.44;38.07;97190.41;29990;216;6000;-61
2021/04/01 00:13:37;;;;;;;0.43;0.43;;;;;;;14.44;38.24;97185.78;29989;325;6004;-61
2021/04/01 00:14:07;;;;;;;0.50;0.50;;;;;;;14.44;38.17;97185.78;29990;216;6000;-60
2021/04/01 00:14:38;;;;;;;0.50;0.50;;;;;;;14.44;38.08;97187.69;29990;328;6004;-60
2021/04/01 00:15:12;;;;;;;0.50;0.50;;;;;;;14.44;38.17;97188.50;29990;243;6000;-61
2021/04/01 00:15:43;;;;;;;0.50;0.50;;;;;;;14.43;38.02;97189.63;29990;234;6004;-60
2021/04/01 00:16:17;;;;;;;0.50;0.50;;;;;;;14.45;38.41;97186.56;29989;237;6000;-61
2021/04/01 00:16:47;;;;;;;0.50;0.50;;;;;;;14.44;38.31;97185.78;29990;205;6004;-61
2021/04/01 00:17:18;;;;;;;0.50;0.50;;;;;;;14.43;37.98;97189.63;29990;218;6000;-61
2021/04/01 00:17:49;;;;;;;0.50;0.50;;;;;;;14.43;38.22;97191.53;29990;233;6004;-61
2021/04/01 00:18:21;;;;;;;0.50;0.50;;;;;;;14.42;38.00;97185.28;29990;241;6000;-61
2021/04/01 00:18:51;;;;;;;0.50;0.50;;;;;;;14.41;38.16;97186.38;29990;258;6005;-61
2021/04/01 00:19:22;;;;;;;0.50;0.50;;;;;;;14.39;38.11;97183.94;29990;271;6000;-62
2021/04/01 00:19:52;;;;;;;0.50;0.50;;;;;;;14.39;38.46;97183.13;29990;222;6005;-61
2021/04/01 00:20:23;;;;;;;0.50;0.50;;;;;;;14.39;38.42;97180.41;29990;325;6000;-61
2021/04/01 00:20:54;;;;;;;0.50;0.50;;;;;;;14.40;38.38;97184.75;29990;311;6005;-61
2021/04/01 00:21:25;;;;;;;0.50;0.50;;;;;;;14.40;38.18;97184.75;29989;231;6000;-61
2021/04/01 00:21:55;;;;;;;1.15;1.15;;;;;;;14.40;38.29;97179.28;29990;271;6004;-60
2021/04/01 00:22:28;;;;;;;0.50;0.50;;;;;;;14.40;38.31;97182.00;29991;256;6000;-61
2021/04/01 00:23:02;;;;;;;0.50;0.50;;;;;;;14.39;38.19;97180.41;29991;335;6004;-61
2021/04/01 00:23:33;;;;;;;0.50;0.50;;;;;;;14.38;38.35;97181.50;29990;260;6000;-61
2021/04/01 00:24:05;;;;;;;0.50;0.50;;;;;;;14.37;38.19;97175.25;29991;223;6004;-61
2021/04/01 00:24:35;;;;;;;0.50;0.50;;;;;;;14.37;38.24;97177.16;29991;247;6000;-61
2021/04/01 00:25:10;;;;;;;0.50;0.50;;;;;;;14.38;38.17;97170.59;29991;219;6004;-61
2021/04/01 00:25:41;;;;;;;0.50;0.50;;;;;;;14.38;38.22;97178.78;29991;232;6000;-61
2021/04/01 00:26:11;;;;;;;0.50;0.50;;;;;;;14.33;38.45;97165.25;29990;239;6005;-60
2021/04/01 00:26:42;;;;;;;0.50;0.50;;;;;;;14.36;38.47;97170.91;29990;369;6000;-60
2021/04/01 00:27:16;;;;;;;0.50;0.50;;;;;;;14.37;38.16;97179.91;29991;199;6005;-61
2021/04/01 00:27:46;;;;;;;0.50;0.50;;;;;;;14.37;38.35;97177.16;29991;266;6000;-61
2021/04/01 00:28:20;;;;;;;0.43;0.43;;;;;;;14.38;38.18;97173.31;29991;252;6005;-62
2021/04/01 00:28:51;;;;;;;0.50;0.50;;;;;;;14.38;38.34;97176.06;29991;261;6000;-60
2021/04/01 00:29:21;;;;;;;0.50;0.50;;;;;;;14.38;38.31;97170.59;29990;255;6004;-60
2021/04/01 00:29:52;;;;;;;0.50;0.50;;;;;;;14.38;38.25;97176.06;29991;206;6000;-53
2021/04/01 00:30:26;;;;;;;0.50;0.50;;;;;;;14.39;38.18;97166.75;29991;202;6004;-60
2021/04/01 00:30:59;;;;;;;0.40;0.40;;;;;;;14.39;38.19;97173.00;29989;198;6000;-60
2021/04/01 00:31:29;;;;;;;0.50;0.50;;;;;;;14.39;38.23;97174.94;29991;260;6004;-61
2021/04/01 00:32:00;;;;;;;0.50;0.50;;;;;;;14.39;38.73;97166.75;29990;273;6000;-60
2021/04/01 00:32:31;;;;;;;0.50;0.50;;;;;;;14.37;38.89;97171.72;29991;245;6004;-61
2021/04/01 00:33:02;;;;;;;0.50;0.50;;;;;;;14.35;38.79;97166.56;29991;203;6000;-61
2021/04/01 00:33:33;;;;;;;0.50;0.50;;;;;;;14.36;38.63;97167.38;29991;224;6005;-60
2021/04/01 00:34:05;;;;;;;0.50;0.50;;;;;;;14.35;38.43;97172.03;29991;210;6000;-61
2021/04/01 00:34:35;;;;;;;0.50;0.50;;;;;;;14.35;38.20;97171.22;29991;231;6005;-61
2021/04/01 00:35:07;;;;;;;0.50;0.50;;;;;;;14.35;38.56;97173.94;29991;238;6000;-61
2021/04/01 00:35:38;;;;;;;0.50;0.50;;;;;;;14.34;38.40;97175.88;29991;212;6004;-53
2021/04/01 00:36:09;;;;;;;0.40;0.40;;;;;;;14.33;38.64;97167.97;29991;218;6000;-61
2021/04/01 00:36:39;;;;;;;0.50;0.50;;;;;;;14.33;38.37;97167.97;29991;237;6004;-60
2021/04/01 00:37:10;;;;;;;0.50;0.50;;;;;;;14.32;38.39;97172.63;29990;256;6000;-61
2021/04/01 00:37:41;;;;;;;0.50;0.50;;;;;;;14.28;38.75;97170.84;29991;279;6004;-61
2021/04/01 00:38:12;;;;;;;0.50;0.50;;;;;;;14.30;38.50;97174.88;29991;266;6000;-61
2021/04/01 00:38:43;;;;;;;0.50;0.50;;;;;;;14.31;38.34;97170.22;29991;353;6004;-60
2021/04/01 00:39:13;;;;;;;0.50;0.50;;;;;;;14.31;38.55;97167.50;29991;446;6000;-60
2021/04/01 00:39:44;;;;;;;0.50;0.50;;;;;;;14.30;38.43;97168.59;29991;272;6004;-60
2021/04/01 00:40:16;;;;;;;0.50;0.50;;;;;;;14.31;38.38;97176.47;29991;335;6010;-61
2021/04/01 00:40:47;;;;;;;0.50;0.50;;;;;;;14.31;38.29;97175.69;29991;278;6005;-60
2021/04/01 00:41:18;;;;;;;0.50;0.50;;;;;;;14.31;38.51;97175.69;29991;270;6000;-61
2021/04/01 00:41:49;;;;;;;0.50;0.50;;;;;;;14.31;38.45;97170.22;29991;214;6000;-61
2021/04/01 00:42:21;;;;;;;0.50;0.50;;;;;;;14.32;38.33;97172.63;29990;198;6000;-62
2021/04/01 00:42:52;;;;;;;0.50;0.50;;;;;;;14.32;38.37;97180.81;29991;277;6004;-61
2021/04/01 00:43:22;;;;;;;0.50;0.50;;;;;;;14.31;38.17;97171.03;29991;197;6000;-60
2021/04/01 00:43:53;;;;;;;0.50;0.50;;;;;;;14.30;38.46;97174.06;29991;243;6004;-61
2021/04/01 00:44:23;;;;;;;0.50;0.50;;;;;;;14.30;38.28;97174.06;29991;216;6000;-60
2021/04/01 00:45:05;;;;;;;0.50;0.50;;;;;;;14.29;38.37;97175.97;29990;273;6004;-60
2021/04/01 00:45:36;;;;;;;0.50;0.50;;;;;;;14.29;38.42;97175.19;29991;213;6010;-60
2021/04/01 00:46:06;;;;;;;0.50;0.50;;;;;;;14.25;38.27;97172.25;29991;219;6004;-61
2021/04/01 00:46:37;;;;;;;0.50;0.50;;;;;;;14.25;38.41;97174.19;29991;207;6000;-60
2021/04/01 00:47:09;;;;;;;0.50;0.50;;;;;;;14.28;38.45;97181.75;29991;206;6004;-61
2021/04/01 00:47:45;;;;;;;0.50;0.50;;;;;;;14.28;38.26;97168.91;29991;252;6000;-61
2021/04/01 00:48:16;;;;;;;0.50;0.50;;;;;;;14.28;38.24;97179.81;29991;259;6005;-60
2021/04/01 00:48:49;;;;;;;0.50;0.50;;;;;;;14.29;38.28;97175.19;29991;229;6000;-61
2021/04/01 00:49:19;;;;;;;0.50;0.50;;;;;;;14.30;38.22;97168.59;29990;197;6005;-61
2021/04/01 00:49:50;;;;;;;1.30;1.30;;;;;;;14.29;38.21;97167.00;29991;210;6000;-61
2021/04/01 00:50:29;;;;;;;0.50;0.50;;;;;;;14.29;38.00;97169.72;29990;424;6004;-60
2021/04/01 00:51:00;;;;;;;0.50;0.50;;;;;;;14.29;38.35;97172.44;29991;351;6000;-60
2021/04/01 00:51:31;;;;;;;0.50;0.50;;;;;;;14.29;38.42;97167.00;29991;244;6004;-60
2021/04/01 00:52:04;;;;;;;0.50;0.50;;;;;;;14.30;38.04;97168.59;29991;202;6000;-60
2021/04/01 00:52:34;;;;;;;0.50;0.50;;;;;;;14.31;37.98;97172.94;29991;199;6004;-60
2021/04/01 00:53:05;;;;;;;0.50;0.50;;;;;;;14.27;38.17;97169.22;29991;278;6000;-61
2021/04/01 00:53:36;;;;;;;0.50;0.50;;;;;;;14.29;37.78;97167.00;29991;216;6004;-61
2021/04/01 00:54:07;;;;;;;0.50;0.50;;;;;;;14.29;38.13;97167.78;29991;213;6000;-60
2021/04/01 00:54:37;;;;;;;0.50;0.50;;;;;;;14.29;38.20;97169.72;29991;204;6004;-60
2021/04/01 00:55:10;;;;;;;0.50;0.50;;;;;;;14.29;38.22;97165.06;29991;216;6000;-60
2021/04/01 00:55:41;;;;;;;0.50;0.50;;;;;;;14.29;38.36;97161.53;29990;257;6005;-60
2021/04/01 00:56:12;;;;;;;0.50;0.50;;;;;;;14.31;38.35;97164.75;29991;242;6000;-60
2021/04/01 00:56:46;;;;;;;0.50;0.50;;;;;;;14.31;38.39;97164.75;29991;197;6005;-60
2021/04/01 00:57:17;;;;;;;0.50;0.50;;;;;;;14.32;38.17;97161.72;29991;227;6000;-61
2021/04/01 00:57:51;;;;;;;0.50;0.50;;;;;;;14.32;38.00;97159.00;29991;260;6005;-60
2021/04/01 00:58:22;;;;;;;0.50;0.50;;;;;;;14.34;38.35;97167.69;29990;218;6000;-60
2021/04/01 00:58:54;;;;;;;0.50;0.50;;;;;;;14.35;38.01;97160.28;29991;244;6004;-61
2021/04/01 00:59:27;;;;;;;0.50;0.50;;;;;;;14.36;38.16;97161.91;29990;220;6000;-60
2021/04/01 00:59:58;;;;;;;0.50;0.50;;;;;;;14.38;38.05;97159.69;29991;232;6004;-60
2021/04/01 01:00:33;;;;;;;0.50;0.50;;;;;;;14.38;37.88;97162.41;29991;251;6000;-60
2021/04/01 01:01:25;;;;;;;0.50;0.50;;;;;;;14.38;37.74;97159.69;29991;265;6004;-61
2021/04/01 01:02:06;;;;;;;0.50;0.50;;;;;;;14.39;37.88;97161.28;29991;196;6000;-60
2021/04/01 01:02:37;;;;;;;0.50;0.50;;;;;;;14.35;37.83;97157.56;29991;202;6004;-61
2021/04/01 01:03:08;;;;;;;0.50;0.50;;;;;;;14.37;37.95;97158.87;29991;233;6000;-60
2021/04/01 01:03:39;;;;;;;0.50;0.50;;;;;;;14.38;38.20;97159.69;29990;230;6005;-60
2021/04/01 01:04:10;;;;;;;0.50;0.50;;;;;;;14.37;38.12;97158.06;29991;319;6000;-60
2021/04/01 01:04:41;;;;;;;0.50;0.50;;;;;;;14.39;37.80;97155.84;29991;198;6005;-60
2021/04/01 01:05:14;;;;;;;0.50;0.50;;;;;;;14.37;38.13;97156.13;29991;246;6000;-60
2021/04/01 01:05:44;;;;;;;0.50;0.50;;;;;;;14.37;37.96;97160.78;29992;214;6004;-60
2021/04/01 01:06:15;;;;;;;0.50;0.50;;;;;;;14.36;38.20;97161.91;29991;214;6000;-61
2021/04/01 01:06:46;;;;;;;0.50;0.50;;;;;;;14.37;38.23;97152.59;29992;219;6004;-60
2021/04/01 01:07:17;;;;;;;0.50;0.50;;;;;;;14.36;38.35;97156.44;29991;341;6000;-61
2021/04/01 01:07:48;;;;;;;0.50;0.50;;;;;;;14.36;38.24;97159.97;29992;240;6004;-61
2021/04/01 01:08:19;;;;;;;0.50;0.50;;;;;;;14.35;38.20;97163.84;29992;223;6000;-60
2021/04/01 01:08:49;;;;;;;0.50;0.50;;;;;;;14.35;37.92;97154.84;29991;210;6004;-60
2021/04/01 01:09:21;;;;;;;0.50;0.50;;;;;;;14.32;37.97;97156.25;29992;270;6000;-60
2021/04/01 01:09:52;;;;;;;0.50;0.50;;;;;;;14.37;38.02;97153.41;29992;277;6004;-60
2021/04/01 01:10:28;;;;;;;0.50;0.50;;;;;;;14.38;37.89;97159.69;29992;243;6000;-60
2021/04/01 01:10:59;;;;;;;0.50;0.50;;;;;;;14.36;37.88;97159.19;29992;212;6005;-61
2021/04/01 01:11:29;;;;;;;0.50;0.50;;;;;;;14.31;37.98;97142.91;29992;219;6000;-60
2021/04/01 01:12:00;;;;;;;0.50;0.50;;;;;;;14.35;37.83;97154.84;29991;323;6005;-61
2021/04/01 01:12:32;;;;;;;0.50;0.50;;;;;;;14.35;38.01;97158.37;29992;219;6000;-61
2021/04/01 01:13:06;;;;;;;0.50;0.50;;;;;;;14.34;37.90;97155.94;29992;245;6004;-61
2021/04/01 01:13:37;;;;;;;0.50;0.50;;;;;;;14.33;37.84;97154.34;29992;216;6000;-60
2021/04/01 01:14:09;;;;;;;0.50;0.50;;;;;;;14.29;38.01;97150.59;29992;221;6004;-61
2021/04/01 01:14:40;;;;;;;0.40;0.40;;;;;;;14.31;37.99;97153.84;29992;200;6000;-61
2021/04/01 01:15:13;;;;;;;0.40;0.40;;;;;;;14.30;38.21;97157.69;29992;207;6004;-60
2021/04/01 01:15:44;;;;;;;0.50;0.50;;;;;;;14.31;37.98;97153.84;29991;259;6000;-61
2021/04/01 01:16:14;;;;;;;0.50;0.50;;;;;;;14.32;37.89;97160.91;29991;273;6004;-61
2021/04/01 01:16:47;;;;;;;0.50;0.50;;;;;;;14.31;37.97;97156.56;29992;240;6000;-61
2021/04/01 01:17:17;;;;;;;0.50;0.50;;;;;;;14.30;38.14;97152.22;29992;268;6004;-61
2021/04/01 01:17:53;;;;;;;0.47;0.47;;;;;;;14.33;37.92;97146.94;29992;268;6000;-61
2021/04/01 01:18:27;;;;;;;0.50;0.50;;;;;;;14.33;37.82;97146.16;29992;211;6005;-61
2021/04/01 01:18:58;;;;;;;0.50;0.50;;;;;;;14.32;37.61;97152.72;29992;222;6000;-61
2021/04/01 01:19:40;;;;;;;0.50;0.50;;;;;;;14.30;38.10;97149.50;29992;230;6005;-61
2021/04/01 01:20:12;;;;;;;0.50;0.50;;;;;;;14.28;38.01;97149.00;29992;229;6000;-60
2021/04/01 01:20:43;;;;;;;0.60;0.60;;;;;;;14.26;37.92;97149.31;29992;382;6004;-60
2021/04/01 01:21:14;;;;;;;0.50;0.50;;;;;;;14.25;37.96;97149.63;29991;307;6000;-60
2021/04/01 01:21:45;;;;;;;0.50;0.50;;;;;;;14.24;38.08;97153.47;29992;202;6004;-61
2021/04/01 01:22:18;;;;;;;0.50;0.50;;;;;;;14.22;38.30;97147.50;29992;234;6000;-60
2021/04/01 01:22:50;;;;;;;0.50;0.50;;;;;;;14.18;38.21;97144.63;29992;261;6004;-60
2021/04/01 01:23:22;;;;;;;0.50;0.50;;;;;;;14.21;38.41;97148.63;29992;203;6000;-60
2021/04/01 01:23:53;;;;;;;0.50;0.50;;;;;;;14.19;38.22;97150.87;29991;301;6004;-61
2021/04/01 01:24:24;;;;;;;0.50;0.50;;;;;;;14.19;38.29;97150.87;29991;210;6000;-61
2021/04/01 01:24:55;;;;;;;0.50;0.50;;;;;;;14.18;38.30;97149.25;29992;267;6004;-61
2021/04/01 01:25:26;;;;;;;0.50;0.50;;;;;;;14.17;38.36;97147.66;29992;229;6000;-60
2021/04/01 01:25:58;;;;;;;0.50;0.50;;;;;;;14.15;38.47;97145.22;29992;268;6005;-60
2021/04/01 01:26:29;;;;;;;0.50;0.50;;;;;;;14.15;38.40;97152.59;29992;230;6000;-60
2021/04/01 01:27:02;;;;;;;0.50;0.50;;;;;;;14.13;38.34;97147.47;29992;258;6005;-61
2021/04/01 01:27:33;;;;;;;0.50;0.50;;;;;;;14.13;38.47;97141.19;29992;237;6000;-61
2021/04/01 01:28:05;;;;;;;0.50;0.50;;;;;;;14.12;38.50;97145.03;29992;237;6004;-61
2021/04/01 01:28:36;;;;;;;0.50;0.50;;;;;;;14.12;38.38;97150.50;29992;270;6000;-60
2021/04/01 01:29:08;;;;;;;0.50;0.50;;;;;;;14.11;38.33;97148.88;29990;277;6004;-60
2021/04/01 01:29:39;;;;;;;0.50;0.50;;;;;;;14.11;38.49;97154.34;29992;279;6000;-61
2021/04/01 01:30:17;;;;;;;0.50;0.50;;;;;;;14.09;38.69;97147.28;29991;228;6004;-61
2021/04/01 01:30:49;;;;;;;0.50;0.50;;;;;;;14.08;38.55;97145.66;29992;226;6000;-60
2021/04/01 01:31:21;;;;;;;0.50;0.50;;;;;;;14.09;38.32;97143.72;29992;275;6004;-60
2021/04/01 01:31:52;;;;;;;0.50;0.50;;;;;;;14.09;38.42;97144.53;29992;197;6000;-61
2021/04/01 01:32:23;;;;;;;0.50;0.50;;;;;;;14.09;38.48;97149.19;29991;199;5997;-61
2021/04/01 01:32:59;;;;;;;0.50;0.50;;;;;;;14.08;38.39;97142.94;29992;220;6000;-60
2021/04/01 01:33:38;;;;;;;0.47;0.47;;;;;;;14.07;38.44;97146.78;29992;240;6005;-60
2021/04/01 01:34:09;;;;;;;0.50;0.50;;;;;;;14.04;38.46;97128.28;29991;264;6000;-61
2021/04/01 01:34:40;;;;;;;0.50;0.50;;;;;;;14.07;38.44;97148.69;29992;270;6005;-60
2021/04/01 01:35:23;;;;;;;0.50;0.50;;;;;;;14.08;38.45;97142.94;29992;253;6000;-60
2021/04/01 01:35:55;;;;;;;0.50;0.50;;;;;;;14.08;38.33;97142.13;29992;226;6004;-61
2021/04/01 01:36:25;;;;;;;0.50;0.50;;;;;;;14.08;38.24;97140.19;29992;222;6000;-61
2021/04/01 01:36:56;;;;;;;0.50;0.50;;;;;;;14.07;38.32;97144.03;29992;235;6004;-61
2021/04/01 01:37:27;;;;;;;0.50;0.50;;;;;;;14.07;38.34;97141.31;29992;220;6000;-61
2021/04/01 01:38:01;;;;;;;0.50;0.50;;;;;;;14.08;38.28;97139.38;29992;197;6004;-61
2021/04/01 01:38:31;;;;;;;0.50;0.50;;;;;;;14.07;38.55;97138.59;29992;196;6000;-61
2021/04/01 01:39:02;;;;;;;0.50;0.50;;;;;;;14.06;38.56;97142.44;29991;196;6004;-61
2021/04/01 01:39:34;;;;;;;0.50;0.50;;;;;;;14.06;38.52;97142.44;29992;196;6006;-61
2021/04/01 01:40:06;;;;;;;0.50;0.50;;;;;;;14.07;38.48;97138.59;29992;260;6005;-61
2021/04/01 01:40:38;;;;;;;0.50;0.50;;;;;;;14.06;38.17;97139.69;29992;258;6000;-61
2021/04/01 01:41:09;;;;;;;0.50;0.50;;;;;;;14.06;38.26;97139.69;29992;272;6005;-61
2021/04/01 01:41:40;;;;;;;0.50;0.50;;;;;;;14.06;38.43;97136.97;29992;235;6000;-60
2021/04/01 01:42:10;;;;;;;0.50;0.50;;;;;;;14.03;38.17;97129.41;29992;242;6015;-59
2021/04/01 01:42:41;;;;;;;0.50;0.50;;;;;;;14.07;38.55;97138.59;29992;226;6000;-61
2021/04/01 01:43:14;;;;;;;0.50;0.50;;;;;;;14.07;38.49;97140.50;29992;221;6004;-60
2021/04/01 01:43:44;;;;;;;0.50;0.50;;;;;;;14.05;38.44;97135.34;29992;258;6000;-61
2021/04/01 01:44:15;;;;;;;0.43;0.43;;;;;;;14.07;38.44;97133.13;29991;259;6004;-60
2021/04/01 01:44:47;;;;;;;0.50;0.50;;;;;;;14.07;38.43;97135.84;29992;245;6000;-60
2021/04/01 01:45:19;;;;;;;0.50;0.50;;;;;;;14.06;38.74;97131.50;29992;220;6004;-60
2021/04/01 01:45:51;;;;;;;0.40;0.40;;;;;;;14.06;38.38;97136.97;29992;212;6000;-60
2021/04/01 01:46:22;;;;;;;0.50;0.50;;;;;;;14.08;38.49;97129.28;29992;264;6004;-60
2021/04/01 01:46:53;;;;;;;0.50;0.50;;;;;;;14.08;38.36;97134.75;29992;252;6000;-60
2021/04/01 01:47:23;;;;;;;0.50;0.50;;;;;;;14.08;38.37;97134.75;29992;226;6005;-60
2021/04/01 01:47:55;;;;;;;0.50;0.50;;;;;;;14.09;38.54;97132.81;29992;222;6000;-60
2021/04/01 01:48:26;;;;;;;0.50;0.50;;;;;;;14.09;38.49;97130.91;29992;267;6005;-60
2021/04/01 01:48:57;;;;;;;0.50;0.50;;;;;;;14.11;38.59;97130.59;29992;255;6000;-60
2021/04/01 01:49:41;;;;;;;0.40;0.40;;;;;;;14.12;38.79;97134.13;29991;236;6005;-59
2021/04/01 01:50:14;;;;;;;0.50;0.50;;;;;;;14.12;38.68;97134.94;29992;209;6000;-60
2021/04/01 01:50:45;;;;;;;0.50;0.50;;;;;;;14.13;38.57;97127.56;29992;262;6004;-60
2021/04/01 01:51:16;;;;;;;0.50;0.50;;;;;;;14.13;38.58;97130.28;29990;268;6000;-59
2021/04/01 01:51:50;;;;;;;0.50;0.50;;;;;;;14.13;38.39;97128.34;29992;249;6004;-60
2021/04/01 01:52:21;;;;;;;0.50;0.50;;;;;;;14.11;38.67;97132.50;29992;224;6000;-60
2021/04/01 01:52:52;;;;;;;0.50;0.50;;;;;;;14.09;38.67;97130.09;29992;208;6004;-60
2021/04/01 01:53:26;;;;;;;0.50;0.50;;;;;;;14.11;38.86;97127.06;29992;272;6000;-59
2021/04/01 01:53:57;;;;;;;0.50;0.50;;;;;;;14.12;38.88;97134.13;29991;204;6004;-60
2021/04/01 01:54:28;;;;;;;0.50;0.50;;;;;;;14.11;38.51;97132.50;29992;246;6000;-61
2021/04/01 01:54:58;;;;;;;0.50;0.50;;;;;;;14.11;38.74;97133.31;29992;227;6005;-59
2021/04/01 01:55:30;;;;;;;0.50;0.50;;;;;;;14.12;38.72;97129.47;29992;259;6000;-60
2021/04/01 01:56:00;;;;;;;0.50;0.50;;;;;;;14.13;38.93;97133.00;29992;273;6016;-60
2021/04/01 01:56:32;;;;;;;0.50;0.50;;;;;;;14.13;38.73;97130.28;29992;280;6000;-61
2021/04/01 01:57:04;;;;;;;0.43;0.43;;;;;;;14.12;38.83;97131.41;29992;337;6005;-59
2021/04/01 01:57:35;;;;;;;0.50;0.50;;;;;;;14.12;38.79;97123.22;29992;259;6000;-60
2021/04/01 01:58:07;;;;;;;0.50;0.50;;;;;;;14.12;38.84;97124.03;29992;202;6004;-59
2021/04/01 01:58:37;;;;;;;0.50;0.50;;;;;;;14.12;38.84;97126.75;29992;277;6000;-61
2021/04/01 01:59:08;;;;;;;0.40;0.40;;;;;;;14.13;38.56;97122.91;29991;198;6004;-60
2021/04/01 01:59:39;;;;;;;0.50;0.50;;;;;;;14.13;38.79;97124.81;29992;202;6000;-59
2021/04/01 02:00:16;;;;;;;0.50;0.50;;;;;;;14.12;38.72;97123.22;29992;202;6004;-60
2021/04/01 02:00:51;;;;;;;0.50;0.50;;;;;;;14.08;38.82;97123.81;29991;261;6000;-61
2021/04/01 02:01:23;;;;;;;0.50;0.50;;;;;;;14.08;38.83;97121.09;29992;206;6004;-61
2021/04/01 02:01:54;;;;;;;0.50;0.50;;;;;;;14.07;38.72;97127.66;29992;212;6000;-59
2021/04/01 02:02:25;;;;;;;17.27;4.07;;;;;;;14.06;38.92;97123.31;29992;211;6016;-60
2021/04/01 02:02:56;;;;;;;0.50;0.50;;;;;;;14.06;38.99;97122.53;29992;252;6000;-60
2021/04/01 02:03:27;;;;;;;0.50;0.50;;;;;;;14.03;38.99;97121.22;29992;199;6005;-61
2021/04/01 02:04:02;;;;;;;0.50;0.50;;;;;;;14.01;39.24;97123.44;29991;200;6000;-60
2021/04/01 02:04:33;;;;;;;0.50;0.50;;;;;;;13.99;39.14;97125.69;29991;233;6005;-59
2021/04/01 02:05:06;;;;;;;0.50;0.50;;;;;;;13.96;39.27;97126.28;29991;227;6000;-60
2021/04/01 02:05:39;;;;;;;0.50;0.50;;;;;;;13.90;39.23;97116.59;29992;255;6004;-60
2021/04/01 02:06:14;;;;;;;0.40;0.40;;;;;;;13.95;39.51;97124.69;29992;197;5197;-60
2021/04/01 02:06:45;;;;;;;0.50;0.50;;;;;;;13.96;39.25;97128.22;29992;233;5201;-60
2021/04/01 02:07:15;;;;;;;0.50;0.50;;;;;;;13.97;39.28;97122.44;29992;354;6000;-60
2021/04/01 02:07:46;;;;;;;0.50;0.50;;;;;;;13.95;39.41;97113.75;29992;202;5201;-60
2021/04/01 02:08:17;;;;;;;0.50;0.50;;;;;;;13.93;39.46;97126.09;29992;214;5199;-60
2021/04/01 02:08:48;;;;;;;0.50;0.50;;;;;;;13.91;39.74;97123.69;29991;228;5203;-60
2021/04/01 02:09:19;;;;;;;0.50;0.50;;;;;;;13.91;39.53;97122.88;29991;202;5203;-60
2021/04/01 02:09:50;;;;;;;0.50;0.50;;;;;;;13.86;39.76;97126.50;29992;199;5203;-60
2021/04/01 02:10:29;;;;;;;0.50;0.50;;;;;;;13.80;39.83;97122.31;29992;264;5203;-61
2021/04/01 02:11:00;;;;;;;0.50;0.50;;;;;;;13.78;39.90;97116.38;29991;198;6000;-61
2021/04/01 02:11:30;;;;;;;0.50;0.50;;;;;;;13.77;39.98;97122.94;29991;204;5204;-61
2021/04/01 02:12:02;;;;;;;0.50;0.50;;;;;;;13.76;39.95;97118.59;29991;261;5202;-60
2021/04/01 02:12:32;;;;;;;0.43;0.43;;;;;;;13.75;40.00;97123.22;29991;218;7000;-60
2021/04/01 02:13:04;;;;;;;0.50;0.50;;;;;;;13.75;40.03;97119.69;29991;204;7004;-60
2021/04/01 02:13:35;;;;;;;0.50;0.50;;;;;;;13.74;39.92;97109.91;29991;277;7000;-60
2021/04/01 02:14:07;;;;;;;0.50;0.50;;;;;;;13.70;40.13;97106.19;29992;205;5207;-60
2021/04/01 02:14:37;;;;;;;0.50;0.50;;;;;;;13.72;40.26;97115.66;29991;395;7000;-60
2021/04/01 02:15:19;;;;;;;0.50;0.50;;;;;;;13.67;40.31;97109.50;29991;228;6004;-61
2021/04/01 02:15:51;;;;;;;0.50;0.50;;;;;;;13.65;40.09;97115.28;29991;242;6000;-60
2021/04/01 02:16:22;;;;;;;0.50;0.50;;;;;;;13.67;40.26;97112.25;29989;196;7004;-61
2021/04/01 02:16:53;;;;;;;0.50;0.50;;;;;;;13.66;40.35;97116.09;29991;234;6000;-60
2021/04/01 02:17:25;;;;;;;0.50;0.50;;;;;;;13.65;40.42;97117.19;29991;197;6004;-60
2021/04/01 02:18:15;;;;;;;1.10;1.10;;;;;;;13.65;40.40;97112.56;29991;203;6000;-60
2021/04/01 02:18:46;;;;;;;16.60;15.77;;;;;;;13.64;40.28;97107.41;29991;226;6005;-61
2021/04/01 02:19:17;;;;;;;0.50;0.50;;;;;;;13.61;40.43;97119.72;29991;219;6000;-59
2021/04/01 02:19:54;;;;;;;0.50;0.50;;;;;;;13.57;40.56;97112.47;29991;224;6020;-60
2021/04/01 02:20:25;;;;;;;0.50;0.50;;;;;;;13.54;40.86;97104.87;29991;227;6000;-60
2021/04/01 02:20:59;;;;;;;0.50;0.50;;;;;;;13.52;40.46;97104.37;29991;216;6004;-60
2021/04/01 02:21:29;;;;;;;0.50;0.50;;;;;;;13.49;40.81;97105.03;29988;199;7000;-60
2021/04/01 02:22:00;;;;;;;0.50;0.50;;;;;;;13.48;40.96;97111.59;29991;213;6004;-60
2021/04/01 02:22:31;;;;;;;0.50;0.50;;;;;;;13.44;40.98;97102.41;29991;197;6000;-60
2021/04/01 02:23:01;;;;;;;0.50;0.50;;;;;;;13.44;40.91;97107.88;29989;255;7004;-60
2021/04/01 02:23:34;;;;;;;0.50;0.50;;;;;;;13.47;41.25;97112.72;29989;231;7000;-61
2021/04/01 02:24:06;;;;;;;0.50;0.50;;;;;;;13.46;40.79;97105.63;29989;210;7004;-60
2021/04/01 02:24:36;;;;;;;0.50;0.50;;;;;;;13.47;40.88;97109.97;29991;258;6000;-60
2021/04/01 02:25:11;;;;;;;0.50;0.50;;;;;;;13.44;41.14;97107.88;29990;215;6005;-61
2021/04/01 02:25:43;;;;;;;0.50;0.50;;;;;;;13.43;41.22;97106.25;29991;197;6000;-61
2021/04/01 02:26:13;;;;;;;0.50;0.50;;;;;;;13.40;41.18;97108.47;29990;212;6996;-61
2021/04/01 02:26:44;;;;;;;0.50;0.50;;;;;;;13.37;41.27;97111.81;29991;199;6000;-60
2021/04/01 02:27:15;;;;;;;0.50;0.50;;;;;;;13.35;41.10;97105.84;29991;279;6005;-60
2021/04/01 02:27:45;;;;;;;0.50;0.50;;;;;;;13.33;41.29;97112.72;29991;222;6000;-59
2021/04/01 02:28:18;;;;;;;0.50;0.50;;;;;;;13.31;41.41;97110.28;29991;210;6004;-60
2021/04/01 02:28:48;;;;;;;0.50;0.50;;;;;;;13.33;41.08;97110.00;29989;334;7000;-60
2021/04/01 02:29:19;;;;;;;0.50;0.50;;;;;;;13.32;41.44;97106.47;29990;210;6004;-60
2021/04/01 02:29:49;;;;;;;0.50;0.50;;;;;;;13.34;41.52;97106.16;29991;235;6000;-60
2021/04/01 02:30:21;;;;;;;0.50;0.50;;;;;;;13.34;41.28;97115.13;29991;205;6004;-60
2021/04/01 02:30:56;;;;;;;0.50;0.50;;;;;;;13.34;41.40;97112.41;29991;267;6009;-61
2021/04/01 02:31:26;;;;;;;0.50;0.50;;;;;;;13.33;41.34;97110.78;29991;260;6004;-60
2021/04/01 02:31:57;;;;;;;0.77;0.77;;;;;;;13.34;41.44;97112.41;29991;232;6000;-61
2021/04/01 02:32:28;;;;;;;0.50;0.50;;;;;;;13.32;41.33;97111.91;29991;245;6004;-60
2021/04/01 02:32:59;;;;;;;0.50;0.50;;;;;;;13.29;41.32;97106.25;29989;226;7000;-60
2021/04/01 02:33:32;;;;;;;0.50;0.50;;;;;;;13.29;41.58;97107.06;29991;204;6005;-59
2021/04/01 02:34:02;;;;;;;0.50;0.50;;;;;;;13.32;41.52;97114.63;29991;236;6000;-60
2021/04/01 02:34:33;;;;;;;0.50;0.50;;;;;;;13.31;41.43;97118.47;29991;211;6017;-60